sensor_id;sensor_type;location;lat;lon;timestamp;P1;durP1;ratioP1;P2;durP2;ratioP2
28934;SDS011;16044;52.726;-2.108;2023-12-04T00:01:42;13.27;;;7.80;;
28934;SDS011;16044;52.726;-2.108;2023-12-04T00:04:14;12.02;;;6.65;;
28934;SDS011;16044;52.726;-2.108;2023-12-04T00:06:45;10.52;;;6.30;;
28934;SDS011;16044;52.726;-2.108;2023-12-04T00:09:15;9.10;;;6.28;;
28934;SDS011;16044;52.726;-2.108;2023-12-04T00:11:45;12.25;;;6.85;;
28934;SDS011;16044;52.726;-2.108;2023-12-04T00:14:18;10.50;;;6.70;;
28934;SDS011;16044;52.726;-2.108;2023-12-04T00:16:49;13.20;;;7.07;;
28934;SDS011;16044;52.726;-2.108;2023-12-04T00:19:19;14.10;;;7.97;;
28934;SDS011;16044;52.726;-2.108;2023-12-04T00:21:50;11.65;;;7.13;;
28934;SDS011;16044;52.726;-2.108;2023-12-04T00:24:21;12.35;;;7.13;;
28934;SDS011;16044;52.726;-2.108;2023-12-04T00:26:51;13.55;;;7.20;;
28934;SDS011;16044;52.726;-2.108;2023-12-04T00:29:24;10.75;;;6.80;;
28934;SDS011;16044;52.726;-2.108;2023-12-04T00:31:55;11.43;;;7.78;;
28934;SDS011;16044;52.726;-2.108;2023-12-04T00:34:26;11.20;;;7.47;;
28934;SDS011;16044;52.726;-2.108;2023-12-04T00:36:56;14.45;;;8.68;;
28934;SDS011;16044;52.726;-2.108;2023-12-04T00:39:27;12.55;;;8.32;;
28934;SDS011;16044;52.726;-2.108;2023-12-04T00:41:57;14.55;;;9.25;;
28934;SDS011;16044;52.726;-2.108;2023-12-04T00:44:30;14.73;;;9.45;;
28934;SDS011;16044;52.726;-2.108;2023-12-04T00:47:01;18.15;;;9.63;;
28934;SDS011;16044;52.726;-2.108;2023-12-04T00:49:31;15.27;;;9.68;;
28934;SDS011;16044;52.726;-2.108;2023-12-04T00:52:02;17.05;;;10.52;;
28934;SDS011;16044;52.726;-2.108;2023-12-04T00:54:33;17.27;;;10.75;;
28934;SDS011;16044;52.726;-2.108;2023-12-04T00:57:04;16.70;;;11.18;;
28934;SDS011;16044;52.726;-2.108;2023-12-04T00:59:36;16.00;;;10.50;;
28934;SDS011;16044;52.726;-2.108;2023-12-04T01:02:07;16.15;;;10.77;;
28934;SDS011;16044;52.726;-2.108;2023-12-04T01:04:39;17.23;;;11.90;;
28934;SDS011;16044;52.726;-2.108;2023-12-04T01:07:10;14.75;;;10.70;;
28934;SDS011;16044;52.726;-2.108;2023-12-04T01:09:41;17.90;;;10.88;;
28934;SDS011;16044;52.726;-2.108;2023-12-04T01:12:11;15.43;;;10.75;;
28934;SDS011;16044;52.726;-2.108;2023-12-04T01:14:44;17.85;;;11.30;;
28934;SDS011;16044;52.726;-2.108;2023-12-04T01:17:14;15.35;;;10.68;;
28934;SDS011;16044;52.726;-2.108;2023-12-04T01:19:44;18.40;;;10.90;;
28934;SDS011;16044;52.726;-2.108;2023-12-04T01:22:15;13.82;;;9.85;;
28934;SDS011;16044;52.726;-2.108;2023-12-04T01:24:45;16.95;;;10.23;;
28934;SDS011;16044;52.726;-2.108;2023-12-04T01:27:15;14.55;;;10.68;;
28934;SDS011;16044;52.726;-2.108;2023-12-04T01:29:48;14.70;;;10.57;;
28934;SDS011;16044;52.726;-2.108;2023-12-04T01:32:19;13.65;;;10.02;;
28934;SDS011;16044;52.726;-2.108;2023-12-04T01:34:49;15.35;;;10.55;;
28934;SDS011;16044;52.726;-2.108;2023-12-04T01:37:19;13.55;;;9.32;;
28934;SDS011;16044;52.726;-2.108;2023-12-04T01:39:50;14.15;;;10.70;;
28934;SDS011;16044;52.726;-2.108;2023-12-04T01:42:21;13.93;;;10.35;;
28934;SDS011;16044;52.726;-2.108;2023-12-04T01:44:54;17.45;;;10.60;;
28934;SDS011;16044;52.726;-2.108;2023-12-04T01:47:24;12.85;;;9.70;;
28934;SDS011;16044;52.726;-2.108;2023-12-04T01:49:55;14.35;;;9.70;;
28934;SDS011;16044;52.726;-2.108;2023-12-04T01:52:26;14.57;;;10.43;;
28934;SDS011;16044;52.726;-2.108;2023-12-04T01:54:56;16.30;;;9.95;;
28934;SDS011;16044;52.726;-2.108;2023-12-04T01:57:26;14.88;;;9.88;;
28934;SDS011;16044;52.726;-2.108;2023-12-04T01:59:59;12.35;;;8.90;;
28934;SDS011;16044;52.726;-2.108;2023-12-04T02:02:31;15.10;;;10.85;;
28934;SDS011;16044;52.726;-2.108;2023-12-04T02:05:01;18.17;;;10.10;;
28934;SDS011;16044;52.726;-2.108;2023-12-04T02:07:33;18.35;;;10.90;;
28934;SDS011;16044;52.726;-2.108;2023-12-04T02:10:05;14.65;;;10.40;;
28934;SDS011;16044;52.726;-2.108;2023-12-04T02:12:36;15.70;;;10.70;;
28934;SDS011;16044;52.726;-2.108;2023-12-04T02:15:09;17.05;;;11.20;;
28934;SDS011;16044;52.726;-2.108;2023-12-04T02:17:40;17.08;;;11.65;;
28934;SDS011;16044;52.726;-2.108;2023-12-04T02:20:12;19.55;;;11.70;;
28934;SDS011;16044;52.726;-2.108;2023-12-04T02:22:43;17.50;;;11.57;;
28934;SDS011;16044;52.726;-2.108;2023-12-04T02:25:16;14.57;;;10.52;;
28934;SDS011;16044;52.726;-2.108;2023-12-04T02:28:01;13.85;;;9.40;;
28934;SDS011;16044;52.726;-2.108;2023-12-04T02:30:38;14.05;;;9.88;;
28934;SDS011;16044;52.726;-2.108;2023-12-04T02:33:13;14.02;;;9.38;;
28934;SDS011;16044;52.726;-2.108;2023-12-04T02:35:44;13.80;;;8.85;;
28934;SDS011;16044;52.726;-2.108;2023-12-04T02:38:17;13.07;;;8.70;;
28934;SDS011;16044;52.726;-2.108;2023-12-04T02:40:50;12.95;;;7.57;;
28934;SDS011;16044;52.726;-2.108;2023-12-04T02:43:21;13.00;;;8.63;;
28934;SDS011;16044;52.726;-2.108;2023-12-04T02:45:51;13.90;;;9.30;;
28934;SDS011;16044;52.726;-2.108;2023-12-04T02:48:21;12.73;;;8.55;;
28934;SDS011;16044;52.726;-2.108;2023-12-04T02:51:13;13.32;;;8.90;;
28934;SDS011;16044;52.726;-2.108;2023-12-04T02:53:43;14.55;;;9.25;;
28934;SDS011;16044;52.726;-2.108;2023-12-04T02:56:16;15.48;;;9.02;;
28934;SDS011;16044;52.726;-2.108;2023-12-04T02:58:46;14.40;;;9.20;;
28934;SDS011;16044;52.726;-2.108;2023-12-04T03:01:16;12.65;;;8.57;;
28934;SDS011;16044;52.726;-2.108;2023-12-04T03:03:47;13.80;;;8.50;;
28934;SDS011;16044;52.726;-2.108;2023-12-04T03:06:17;13.05;;;8.43;;
28934;SDS011;16044;52.726;-2.108;2023-12-04T03:08:48;12.82;;;7.72;;
28934;SDS011;16044;52.726;-2.108;2023-12-04T03:11:21;12.13;;;7.28;;
28934;SDS011;16044;52.726;-2.108;2023-12-04T03:13:51;16.55;;;7.38;;
28934;SDS011;16044;52.726;-2.108;2023-12-04T03:16:21;11.77;;;7.47;;
28934;SDS011;16044;52.726;-2.108;2023-12-04T03:18:52;10.18;;;7.28;;
28934;SDS011;16044;52.726;-2.108;2023-12-04T03:21:22;12.13;;;7.68;;
28934;SDS011;16044;52.726;-2.108;2023-12-04T03:23:53;11.88;;;7.82;;
28934;SDS011;16044;52.726;-2.108;2023-12-04T03:26:26;10.70;;;7.45;;
28934;SDS011;16044;52.726;-2.108;2023-12-04T03:28:56;10.98;;;7.95;;
28934;SDS011;16044;52.726;-2.108;2023-12-04T03:31:26;11.63;;;8.63;;
28934;SDS011;16044;52.726;-2.108;2023-12-04T03:33:58;10.80;;;8.15;;
28934;SDS011;16044;52.726;-2.108;2023-12-04T03:36:29;12.60;;;8.52;;
28934;SDS011;16044;52.726;-2.108;2023-12-04T03:38:59;11.38;;;8.27;;
28934;SDS011;16044;52.726;-2.108;2023-12-04T03:41:33;12.38;;;8.80;;
28934;SDS011;16044;52.726;-2.108;2023-12-04T03:44:03;13.48;;;9.23;;
28934;SDS011;16044;52.726;-2.108;2023-12-04T03:46:34;14.65;;;9.45;;
28934;SDS011;16044;52.726;-2.108;2023-12-04T03:49:04;11.73;;;8.63;;
28934;SDS011;16044;52.726;-2.108;2023-12-04T03:51:35;14.10;;;9.27;;
28934;SDS011;16044;52.726;-2.108;2023-12-04T03:54:06;13.75;;;9.60;;
28934;SDS011;16044;52.726;-2.108;2023-12-04T03:56:38;13.85;;;9.52;;
28934;SDS011;16044;52.726;-2.108;2023-12-04T03:59:09;15.02;;;9.63;;
28934;SDS011;16044;52.726;-2.108;2023-12-04T04:01:39;14.88;;;10.13;;
28934;SDS011;16044;52.726;-2.108;2023-12-04T04:04:10;15.82;;;10.73;;
28934;SDS011;16044;52.726;-2.108;2023-12-04T04:06:40;14.25;;;10.15;;
28934;SDS011;16044;52.726;-2.108;2023-12-04T04:09:11;17.80;;;11.02;;
28934;SDS011;16044;52.726;-2.108;2023-12-04T04:11:43;15.20;;;10.75;;
28934;SDS011;16044;52.726;-2.108;2023-12-04T04:14:14;15.45;;;10.75;;
28934;SDS011;16044;52.726;-2.108;2023-12-04T04:16:44;16.83;;;10.90;;
28934;SDS011;16044;52.726;-2.108;2023-12-04T04:19:15;15.73;;;11.20;;
28934;SDS011;16044;52.726;-2.108;2023-12-04T04:21:45;14.95;;;10.75;;
28934;SDS011;16044;52.726;-2.108;2023-12-04T04:24:15;14.27;;;10.65;;
28934;SDS011;16044;52.726;-2.108;2023-12-04T04:26:48;15.68;;;10.95;;
28934;SDS011;16044;52.726;-2.108;2023-12-04T04:29:19;13.93;;;9.52;;
28934;SDS011;16044;52.726;-2.108;2023-12-04T04:31:49;13.50;;;9.32;;
28934;SDS011;16044;52.726;-2.108;2023-12-04T04:34:19;14.15;;;9.80;;
28934;SDS011;16044;52.726;-2.108;2023-12-04T04:36:51;13.57;;;9.40;;
28934;SDS011;16044;52.726;-2.108;2023-12-04T04:39:21;16.63;;;9.07;;
28934;SDS011;16044;52.726;-2.108;2023-12-04T04:41:54;11.35;;;8.45;;
28934;SDS011;16044;52.726;-2.108;2023-12-04T04:44:25;10.98;;;8.13;;
28934;SDS011;16044;52.726;-2.108;2023-12-04T04:46:55;12.23;;;8.30;;
28934;SDS011;16044;52.726;-2.108;2023-12-04T04:49:25;12.63;;;8.82;;
28934;SDS011;16044;52.726;-2.108;2023-12-04T04:51:56;9.82;;;7.97;;
28934;SDS011;16044;52.726;-2.108;2023-12-04T04:54:26;11.55;;;8.32;;
28934;SDS011;16044;52.726;-2.108;2023-12-04T04:57:03;12.30;;;8.95;;
28934;SDS011;16044;52.726;-2.108;2023-12-04T04:59:34;11.68;;;8.75;;
28934;SDS011;16044;52.726;-2.108;2023-12-04T05:02:05;15.00;;;9.13;;
28934;SDS011;16044;52.726;-2.108;2023-12-04T05:04:35;12.45;;;9.52;;
28934;SDS011;16044;52.726;-2.108;2023-12-04T05:07:06;12.45;;;8.90;;
28934;SDS011;16044;52.726;-2.108;2023-12-04T05:09:36;11.85;;;8.60;;
28934;SDS011;16044;52.726;-2.108;2023-12-04T05:12:09;11.15;;;8.93;;
28934;SDS011;16044;52.726;-2.108;2023-12-04T05:14:40;12.48;;;8.52;;
28934;SDS011;16044;52.726;-2.108;2023-12-04T05:17:11;15.40;;;8.60;;
28934;SDS011;16044;52.726;-2.108;2023-12-04T05:19:41;13.38;;;9.25;;
28934;SDS011;16044;52.726;-2.108;2023-12-04T05:22:12;14.98;;;10.35;;
28934;SDS011;16044;52.726;-2.108;2023-12-04T05:24:42;15.20;;;9.77;;
28934;SDS011;16044;52.726;-2.108;2023-12-04T05:27:15;13.50;;;10.05;;
28934;SDS011;16044;52.726;-2.108;2023-12-04T05:29:46;16.45;;;10.00;;
28934;SDS011;16044;52.726;-2.108;2023-12-04T05:32:16;12.90;;;10.02;;
28934;SDS011;16044;52.726;-2.108;2023-12-04T05:34:47;15.95;;;11.10;;
28934;SDS011;16044;52.726;-2.108;2023-12-04T05:37:17;14.43;;;10.45;;
28934;SDS011;16044;52.726;-2.108;2023-12-04T05:39:48;13.35;;;10.27;;
28934;SDS011;16044;52.726;-2.108;2023-12-04T05:42:21;16.55;;;10.30;;
28934;SDS011;16044;52.726;-2.108;2023-12-04T05:44:51;13.95;;;9.95;;
28934;SDS011;16044;52.726;-2.108;2023-12-04T05:47:24;13.05;;;9.52;;
28934;SDS011;16044;52.726;-2.108;2023-12-04T05:49:54;14.77;;;10.18;;
28934;SDS011;16044;52.726;-2.108;2023-12-04T05:52:24;12.48;;;9.10;;
28934;SDS011;16044;52.726;-2.108;2023-12-04T05:54:55;13.68;;;9.55;;
28934;SDS011;16044;52.726;-2.108;2023-12-04T05:57:28;13.15;;;9.95;;
28934;SDS011;16044;52.726;-2.108;2023-12-04T05:59:58;15.07;;;9.63;;
28934;SDS011;16044;52.726;-2.108;2023-12-04T06:02:29;14.20;;;9.93;;
28934;SDS011;16044;52.726;-2.108;2023-12-04T06:04:59;14.55;;;10.00;;
28934;SDS011;16044;52.726;-2.108;2023-12-04T06:07:30;13.27;;;9.80;;
28934;SDS011;16044;52.726;-2.108;2023-12-04T06:10:00;11.75;;;9.60;;
28934;SDS011;16044;52.726;-2.108;2023-12-04T06:12:34;13.18;;;9.15;;
28934;SDS011;16044;52.726;-2.108;2023-12-04T06:15:05;14.60;;;9.70;;
28934;SDS011;16044;52.726;-2.108;2023-12-04T06:17:37;16.75;;;10.18;;
28934;SDS011;16044;52.726;-2.108;2023-12-04T06:20:08;13.88;;;9.88;;
28934;SDS011;16044;52.726;-2.108;2023-12-04T06:22:41;13.73;;;10.48;;
28934;SDS011;16044;52.726;-2.108;2023-12-04T06:25:12;18.02;;;10.05;;
28934;SDS011;16044;52.726;-2.108;2023-12-04T06:27:48;15.77;;;11.30;;
28934;SDS011;16044;52.726;-2.108;2023-12-04T06:30:19;16.93;;;10.93;;
28934;SDS011;16044;52.726;-2.108;2023-12-04T06:32:51;13.45;;;10.07;;
28934;SDS011;16044;52.726;-2.108;2023-12-04T06:35:22;15.85;;;10.10;;
28934;SDS011;16044;52.726;-2.108;2023-12-04T06:37:54;16.50;;;10.60;;
28934;SDS011;16044;52.726;-2.108;2023-12-04T06:40:25;14.25;;;10.10;;
28934;SDS011;16044;52.726;-2.108;2023-12-04T06:42:59;15.68;;;11.35;;
28934;SDS011;16044;52.726;-2.108;2023-12-04T06:45:30;15.43;;;10.77;;
28934;SDS011;16044;52.726;-2.108;2023-12-04T06:48:02;16.65;;;10.93;;
28934;SDS011;16044;52.726;-2.108;2023-12-04T06:50:33;16.77;;;11.35;;
28934;SDS011;16044;52.726;-2.108;2023-12-04T06:53:04;15.52;;;11.48;;
28934;SDS011;16044;52.726;-2.108;2023-12-04T06:55:34;16.38;;;11.30;;
28934;SDS011;16044;52.726;-2.108;2023-12-04T06:58:07;21.02;;;11.20;;
28934;SDS011;16044;52.726;-2.108;2023-12-04T07:00:37;17.00;;;10.57;;
28934;SDS011;16044;52.726;-2.108;2023-12-04T07:03:08;17.05;;;11.00;;
28934;SDS011;16044;52.726;-2.108;2023-12-04T07:05:38;14.27;;;9.98;;
28934;SDS011;16044;52.726;-2.108;2023-12-04T07:08:09;16.42;;;11.70;;
28934;SDS011;16044;52.726;-2.108;2023-12-04T07:10:39;15.00;;;10.27;;
28934;SDS011;16044;52.726;-2.108;2023-12-04T07:13:12;15.65;;;10.60;;
28934;SDS011;16044;52.726;-2.108;2023-12-04T07:15:43;16.42;;;11.15;;
28934;SDS011;16044;52.726;-2.108;2023-12-04T07:18:14;15.25;;;10.50;;
28934;SDS011;16044;52.726;-2.108;2023-12-04T07:20:44;14.07;;;10.07;;
28934;SDS011;16044;52.726;-2.108;2023-12-04T07:23:14;13.65;;;10.50;;
28934;SDS011;16044;52.726;-2.108;2023-12-04T07:25:45;18.98;;;11.73;;
28934;SDS011;16044;52.726;-2.108;2023-12-04T07:28:18;17.80;;;10.68;;
28934;SDS011;16044;52.726;-2.108;2023-12-04T07:30:49;14.45;;;10.88;;
28934;SDS011;16044;52.726;-2.108;2023-12-04T07:33:19;15.00;;;11.00;;
28934;SDS011;16044;52.726;-2.108;2023-12-04T07:35:50;16.17;;;11.27;;
28934;SDS011;16044;52.726;-2.108;2023-12-04T07:38:20;17.50;;;12.07;;
28934;SDS011;16044;52.726;-2.108;2023-12-04T07:40:54;15.75;;;11.70;;
28934;SDS011;16044;52.726;-2.108;2023-12-04T07:43:27;16.98;;;11.13;;
28934;SDS011;16044;52.726;-2.108;2023-12-04T07:45:58;18.60;;;11.73;;
28934;SDS011;16044;52.726;-2.108;2023-12-04T07:48:28;19.73;;;12.43;;
28934;SDS011;16044;52.726;-2.108;2023-12-04T07:50:59;18.17;;;12.07;;
28934;SDS011;16044;52.726;-2.108;2023-12-04T07:53:29;19.25;;;12.05;;
28934;SDS011;16044;52.726;-2.108;2023-12-04T07:56:00;21.95;;;12.75;;
28934;SDS011;16044;52.726;-2.108;2023-12-04T07:58:35;22.92;;;13.15;;
28934;SDS011;16044;52.726;-2.108;2023-12-04T08:01:05;19.50;;;12.90;;
28934;SDS011;16044;52.726;-2.108;2023-12-04T08:03:37;17.45;;;12.98;;
28934;SDS011;16044;52.726;-2.108;2023-12-04T08:06:07;22.27;;;12.85;;
28934;SDS011;16044;52.726;-2.108;2023-12-04T08:08:38;17.92;;;13.40;;
28934;SDS011;16044;52.726;-2.108;2023-12-04T08:11:09;19.23;;;13.15;;
28934;SDS011;16044;52.726;-2.108;2023-12-04T08:13:42;17.10;;;12.52;;
28934;SDS011;16044;52.726;-2.108;2023-12-04T08:16:13;16.88;;;12.23;;
28934;SDS011;16044;52.726;-2.108;2023-12-04T08:18:44;21.17;;;12.25;;
28934;SDS011;16044;52.726;-2.108;2023-12-04T08:21:15;17.58;;;11.38;;
28934;SDS011;16044;52.726;-2.108;2023-12-04T08:23:45;16.23;;;11.48;;
28934;SDS011;16044;52.726;-2.108;2023-12-04T08:26:20;14.57;;;10.52;;
28934;SDS011;16044;52.726;-2.108;2023-12-04T08:28:54;16.63;;;10.55;;
28934;SDS011;16044;52.726;-2.108;2023-12-04T08:31:24;14.85;;;10.30;;
28934;SDS011;16044;52.726;-2.108;2023-12-04T08:33:55;13.82;;;9.68;;
28934;SDS011;16044;52.726;-2.108;2023-12-04T08:36:26;14.95;;;10.10;;
28934;SDS011;16044;52.726;-2.108;2023-12-04T08:39:12;13.98;;;9.88;;
28934;SDS011;16044;52.726;-2.108;2023-12-04T08:41:44;13.73;;;9.10;;
28934;SDS011;16044;52.726;-2.108;2023-12-04T08:44:29;12.60;;;8.70;;
28934;SDS011;16044;52.726;-2.108;2023-12-04T08:46:59;13.30;;;8.98;;
28934;SDS011;16044;52.726;-2.108;2023-12-04T08:49:30;14.40;;;9.25;;
28934;SDS011;16044;52.726;-2.108;2023-12-04T08:52:11;11.43;;;8.60;;
28934;SDS011;16044;52.726;-2.108;2023-12-04T08:54:41;13.50;;;9.13;;
28934;SDS011;16044;52.726;-2.108;2023-12-04T08:57:12;12.70;;;8.65;;
28934;SDS011;16044;52.726;-2.108;2023-12-04T08:59:45;11.75;;;7.82;;
28934;SDS011;16044;52.726;-2.108;2023-12-04T09:02:15;11.95;;;7.70;;
28934;SDS011;16044;52.726;-2.108;2023-12-04T09:04:46;10.90;;;7.07;;
28934;SDS011;16044;52.726;-2.108;2023-12-04T09:07:16;14.30;;;7.47;;
28934;SDS011;16044;52.726;-2.108;2023-12-04T09:09:50;9.13;;;6.78;;
28934;SDS011;16044;52.726;-2.108;2023-12-04T09:12:20;11.05;;;7.30;;
28934;SDS011;16044;52.726;-2.108;2023-12-04T09:14:53;10.43;;;7.38;;
28934;SDS011;16044;52.726;-2.108;2023-12-04T09:17:23;10.82;;;6.93;;
28934;SDS011;16044;52.726;-2.108;2023-12-04T09:20:02;12.18;;;7.65;;
28934;SDS011;16044;52.726;-2.108;2023-12-04T09:22:33;10.77;;;7.35;;
28934;SDS011;16044;52.726;-2.108;2023-12-04T09:25:18;10.90;;;7.60;;
28934;SDS011;16044;52.726;-2.108;2023-12-04T09:27:48;11.32;;;8.30;;
28934;SDS011;16044;52.726;-2.108;2023-12-04T09:30:21;10.60;;;7.25;;
28934;SDS011;16044;52.726;-2.108;2023-12-04T09:32:51;11.63;;;8.00;;
28934;SDS011;16044;52.726;-2.108;2023-12-04T09:35:22;12.32;;;7.82;;
28934;SDS011;16044;52.726;-2.108;2023-12-04T09:37:52;10.20;;;7.38;;
28934;SDS011;16044;52.726;-2.108;2023-12-04T09:40:23;9.55;;;7.35;;
28934;SDS011;16044;52.726;-2.108;2023-12-04T09:42:54;11.43;;;7.70;;
28934;SDS011;16044;52.726;-2.108;2023-12-04T09:45:27;13.45;;;7.32;;
28934;SDS011;16044;52.726;-2.108;2023-12-04T09:47:59;11.63;;;7.60;;
28934;SDS011;16044;52.726;-2.108;2023-12-04T09:50:30;14.30;;;7.65;;
28934;SDS011;16044;52.726;-2.108;2023-12-04T09:53:01;12.05;;;6.72;;
28934;SDS011;16044;52.726;-2.108;2023-12-04T09:55:33;9.57;;;6.82;;
28934;SDS011;16044;52.726;-2.108;2023-12-04T09:58:03;9.43;;;6.85;;
28934;SDS011;16044;52.726;-2.108;2023-12-04T10:00:37;11.93;;;6.35;;
28934;SDS011;16044;52.726;-2.108;2023-12-04T10:03:09;7.97;;;5.80;;
28934;SDS011;16044;52.726;-2.108;2023-12-04T10:05:40;7.25;;;5.90;;
28934;SDS011;16044;52.726;-2.108;2023-12-04T10:08:13;8.55;;;6.43;;
28934;SDS011;16044;52.726;-2.108;2023-12-04T10:10:44;9.98;;;6.78;;
28934;SDS011;16044;52.726;-2.108;2023-12-04T10:13:15;8.98;;;6.95;;
28934;SDS011;16044;52.726;-2.108;2023-12-04T10:16:08;9.82;;;7.43;;
28934;SDS011;16044;52.726;-2.108;2023-12-04T10:18:39;10.18;;;7.53;;
28934;SDS011;16044;52.726;-2.108;2023-12-04T10:21:09;9.20;;;7.07;;
28934;SDS011;16044;52.726;-2.108;2023-12-04T10:23:47;8.95;;;6.88;;
28934;SDS011;16044;52.726;-2.108;2023-12-04T10:26:18;11.02;;;8.18;;
28934;SDS011;16044;52.726;-2.108;2023-12-04T10:28:58;13.35;;;8.93;;
28934;SDS011;16044;52.726;-2.108;2023-12-04T10:31:34;11.40;;;8.60;;
28934;SDS011;16044;52.726;-2.108;2023-12-04T10:34:04;12.77;;;9.10;;
28934;SDS011;16044;52.726;-2.108;2023-12-04T10:36:36;12.48;;;8.75;;
28934;SDS011;16044;52.726;-2.108;2023-12-04T10:39:07;14.30;;;9.70;;
28934;SDS011;16044;52.726;-2.108;2023-12-04T10:41:40;12.63;;;9.32;;
28934;SDS011;16044;52.726;-2.108;2023-12-04T10:44:14;13.18;;;10.50;;
28934;SDS011;16044;52.726;-2.108;2023-12-04T10:46:49;14.30;;;10.63;;
28934;SDS011;16044;52.726;-2.108;2023-12-04T10:49:20;19.60;;;13.32;;
28934;SDS011;16044;52.726;-2.108;2023-12-04T10:51:51;16.05;;;11.32;;
28934;SDS011;16044;52.726;-2.108;2023-12-04T10:54:23;15.20;;;10.93;;
28934;SDS011;16044;52.726;-2.108;2023-12-04T10:56:55;14.45;;;10.95;;
28934;SDS011;16044;52.726;-2.108;2023-12-04T10:59:32;17.27;;;11.85;;
28934;SDS011;16044;52.726;-2.108;2023-12-04T11:02:12;17.15;;;12.05;;
28934;SDS011;16044;52.726;-2.108;2023-12-04T11:04:51;17.58;;;11.85;;
28934;SDS011;16044;52.726;-2.108;2023-12-04T11:07:27;18.95;;;13.50;;
28934;SDS011;16044;52.726;-2.108;2023-12-04T11:10:21;18.85;;;13.40;;
28934;SDS011;16044;52.726;-2.108;2023-12-04T11:12:55;22.77;;;13.77;;
28934;SDS011;16044;52.726;-2.108;2023-12-04T11:15:35;23.08;;;15.23;;
28934;SDS011;16044;52.726;-2.108;2023-12-04T11:18:12;21.50;;;16.27;;
28934;SDS011;16044;52.726;-2.108;2023-12-04T11:20:46;25.38;;;15.73;;
28934;SDS011;16044;52.726;-2.108;2023-12-04T11:23:23;27.27;;;16.30;;
28934;SDS011;16044;52.726;-2.108;2023-12-04T11:25:54;27.02;;;17.17;;
28934;SDS011;16044;52.726;-2.108;2023-12-04T11:28:26;31.05;;;17.13;;
28934;SDS011;16044;52.726;-2.108;2023-12-04T11:30:57;25.80;;;16.65;;
28934;SDS011;16044;52.726;-2.108;2023-12-04T11:33:31;25.25;;;15.75;;
28934;SDS011;16044;52.726;-2.108;2023-12-04T11:36:06;24.38;;;15.68;;
28934;SDS011;16044;52.726;-2.108;2023-12-04T11:38:43;24.83;;;16.25;;
28934;SDS011;16044;52.726;-2.108;2023-12-04T11:41:16;29.33;;;16.70;;
28934;SDS011;16044;52.726;-2.108;2023-12-04T11:43:52;24.85;;;15.40;;
28934;SDS011;16044;52.726;-2.108;2023-12-04T11:46:26;25.17;;;16.23;;
28934;SDS011;16044;52.726;-2.108;2023-12-04T11:52:03;31.27;;;19.40;;
28934;SDS011;16044;52.726;-2.108;2023-12-04T11:57:32;28.52;;;18.17;;
28934;SDS011;16044;52.726;-2.108;2023-12-04T12:00:13;26.85;;;17.33;;
28934;SDS011;16044;52.726;-2.108;2023-12-04T12:03:01;25.55;;;17.15;;
28934;SDS011;16044;52.726;-2.108;2023-12-04T12:05:51;26.20;;;17.27;;
28934;SDS011;16044;52.726;-2.108;2023-12-04T12:08:22;27.52;;;17.42;;
28934;SDS011;16044;52.726;-2.108;2023-12-04T12:10:53;25.80;;;16.35;;
28934;SDS011;16044;52.726;-2.108;2023-12-04T12:13:24;26.90;;;17.40;;
28934;SDS011;16044;52.726;-2.108;2023-12-04T12:15:55;27.63;;;17.73;;
28934;SDS011;16044;52.726;-2.108;2023-12-04T12:18:25;27.05;;;17.42;;
28934;SDS011;16044;52.726;-2.108;2023-12-04T12:20:58;25.50;;;16.55;;
28934;SDS011;16044;52.726;-2.108;2023-12-04T12:23:29;25.90;;;17.10;;
28934;SDS011;16044;52.726;-2.108;2023-12-04T12:25:59;24.27;;;17.20;;
28934;SDS011;16044;52.726;-2.108;2023-12-04T12:28:30;24.00;;;16.02;;
28934;SDS011;16044;52.726;-2.108;2023-12-04T12:31:01;23.65;;;16.48;;
28934;SDS011;16044;52.726;-2.108;2023-12-04T12:33:32;23.23;;;17.02;;
28934;SDS011;16044;52.726;-2.108;2023-12-04T12:36:06;26.15;;;17.10;;
28934;SDS011;16044;52.726;-2.108;2023-12-04T12:38:39;24.45;;;17.13;;
28934;SDS011;16044;52.726;-2.108;2023-12-04T12:41:13;21.55;;;15.75;;
28934;SDS011;16044;52.726;-2.108;2023-12-04T12:43:43;24.77;;;15.27;;
28934;SDS011;16044;52.726;-2.108;2023-12-04T12:46:14;20.70;;;15.45;;
28934;SDS011;16044;52.726;-2.108;2023-12-04T12:48:47;20.42;;;14.25;;
28934;SDS011;16044;52.726;-2.108;2023-12-04T12:51:20;23.58;;;13.55;;
28934;SDS011;16044;52.726;-2.108;2023-12-04T12:53:51;20.23;;;13.80;;
28934;SDS011;16044;52.726;-2.108;2023-12-04T12:56:21;17.30;;;13.00;;
28934;SDS011;16044;52.726;-2.108;2023-12-04T12:58:52;15.50;;;11.88;;
28934;SDS011;16044;52.726;-2.108;2023-12-04T13:01:24;18.45;;;12.93;;
28934;SDS011;16044;52.726;-2.108;2023-12-04T13:03:56;16.88;;;12.20;;
28934;SDS011;16044;52.726;-2.108;2023-12-04T13:06:29;21.02;;;12.68;;
28934;SDS011;16044;52.726;-2.108;2023-12-04T13:09:00;13.48;;;8.75;;
28934;SDS011;16044;52.726;-2.108;2023-12-04T13:11:33;15.65;;;11.30;;
28934;SDS011;16044;52.726;-2.108;2023-12-04T13:14:04;14.32;;;10.45;;
28934;SDS011;16044;52.726;-2.108;2023-12-04T13:16:34;16.75;;;11.85;;
28934;SDS011;16044;52.726;-2.108;2023-12-04T13:19:05;16.27;;;11.70;;
28934;SDS011;16044;52.726;-2.108;2023-12-04T13:21:38;12.77;;;9.65;;
28934;SDS011;16044;52.726;-2.108;2023-12-04T13:24:09;14.07;;;9.25;;
28934;SDS011;16044;52.726;-2.108;2023-12-04T13:26:40;12.68;;;9.18;;
28934;SDS011;16044;52.726;-2.108;2023-12-04T13:29:10;14.00;;;9.27;;
28934;SDS011;16044;52.726;-2.108;2023-12-04T13:31:42;14.05;;;7.45;;
28934;SDS011;16044;52.726;-2.108;2023-12-04T13:34:13;10.40;;;7.40;;
28934;SDS011;16044;52.726;-2.108;2023-12-04T13:36:46;9.55;;;6.75;;
28934;SDS011;16044;52.726;-2.108;2023-12-04T13:39:16;8.23;;;6.55;;
28934;SDS011;16044;52.726;-2.108;2023-12-04T13:41:54;11.38;;;8.27;;
28934;SDS011;16044;52.726;-2.108;2023-12-04T13:44:37;8.60;;;7.20;;
28934;SDS011;16044;52.726;-2.108;2023-12-04T13:47:07;8.45;;;6.80;;
28934;SDS011;16044;52.726;-2.108;2023-12-04T13:49:38;8.05;;;6.40;;
28934;SDS011;16044;52.726;-2.108;2023-12-04T13:52:12;9.23;;;7.05;;
28934;SDS011;16044;52.726;-2.108;2023-12-04T13:54:42;9.45;;;6.93;;
28934;SDS011;16044;52.726;-2.108;2023-12-04T13:57:14;8.90;;;6.32;;
28934;SDS011;16044;52.726;-2.108;2023-12-04T13:59:48;8.60;;;6.32;;
28934;SDS011;16044;52.726;-2.108;2023-12-04T14:02:18;9.60;;;6.70;;
28934;SDS011;16044;52.726;-2.108;2023-12-04T14:04:49;8.95;;;6.70;;
28934;SDS011;16044;52.726;-2.108;2023-12-04T14:07:22;8.07;;;6.00;;
28934;SDS011;16044;52.726;-2.108;2023-12-04T14:09:53;13.27;;;7.43;;
28934;SDS011;16044;52.726;-2.108;2023-12-04T14:12:24;11.25;;;7.50;;
28934;SDS011;16044;52.726;-2.108;2023-12-04T14:14:54;9.40;;;7.30;;
28934;SDS011;16044;52.726;-2.108;2023-12-04T14:17:25;9.68;;;7.63;;
28934;SDS011;16044;52.726;-2.108;2023-12-04T14:19:56;11.38;;;7.65;;
28934;SDS011;16044;52.726;-2.108;2023-12-04T14:22:29;11.32;;;8.57;;
28934;SDS011;16044;52.726;-2.108;2023-12-04T14:24:59;11.45;;;8.68;;
28934;SDS011;16044;52.726;-2.108;2023-12-04T14:27:29;10.02;;;8.38;;
28934;SDS011;16044;52.726;-2.108;2023-12-04T14:30:00;13.27;;;9.77;;
28934;SDS011;16044;52.726;-2.108;2023-12-04T14:32:32;16.58;;;9.13;;
28934;SDS011;16044;52.726;-2.108;2023-12-04T14:35:13;13.57;;;9.70;;
28934;SDS011;16044;52.726;-2.108;2023-12-04T14:37:47;10.00;;;8.55;;
28934;SDS011;16044;52.726;-2.108;2023-12-04T14:40:17;13.15;;;8.55;;
28934;SDS011;16044;52.726;-2.108;2023-12-04T14:42:47;12.48;;;8.23;;
28934;SDS011;16044;52.726;-2.108;2023-12-04T14:45:18;12.85;;;8.30;;
28934;SDS011;16044;52.726;-2.108;2023-12-04T14:47:48;14.65;;;9.40;;
28934;SDS011;16044;52.726;-2.108;2023-12-04T14:50:22;16.98;;;9.77;;